KBVO/BVO METAR and TAF weather

Enter ICAO airport designator
Station Type Date Time Source
KBVO METAR 2022/06/30 13:53 UTC NOAA

KBVO 301353Z AUTO 15005KT 10SM CLR 23/16 A3010 RMK AO2 SLP183 T02330161


Station Type Date Time Source
KBVO Decoded METAR 2022/06/30 13:53 UTC NOAA

BARTLESVILLE MUNICIPAL AIRPORT , OK, United States (KBVO) 36-46N 96-01W 210M
Jun 30, 2022 - 09:53 AM EDT / 2022.06.30 1353 UTC
Wind: from the SSE (150 degrees) at 6 MPH (5 KT):0
Visibility: 10 mile(s):0
Sky conditions: clear
Temperature: 73.9 F (23.3 C)
Dew Point: 61.0 F (16.1 C)
Relative Humidity: 63%
Pressure (altimeter): 30.1 in. Hg (1019 hPa)
ob: KBVO 301353Z AUTO 15005KT 10SM CLR 23/16 A3010 RMK AO2 SLP183 T02330161
cycle: 14

Station Type Date Time Source
KBVO TAF 2022/06/30 12:22 UTC NOAA

TAF KBVO 301120Z 3012/0112 19009KT P6SM SKC
TEMPO 3012/3013 3SM BR
FM010100 16003KT P6SM SKC

Example: see airport list